createdAt,value
2023-05-24T00:02:16.774Z,11.74
2023-05-24T00:04:45.457Z,11.81
2023-05-24T00:07:12.776Z,11.84
2023-05-24T00:09:39.906Z,11.82
2023-05-24T00:12:07.289Z,11.74
2023-05-24T00:14:34.533Z,11.78
2023-05-24T00:17:01.797Z,11.82
2023-05-24T00:19:29.584Z,11.79
2023-05-24T00:21:56.885Z,11.69
2023-05-24T00:24:24.044Z,11.78
2023-05-24T00:26:51.187Z,11.84
2023-05-24T00:29:18.327Z,11.82
2023-05-24T00:31:45.590Z,11.79
2023-05-24T00:34:12.706Z,11.75
2023-05-24T00:36:39.813Z,11.65
2023-05-24T00:39:07.149Z,11.57
2023-05-24T00:41:34.507Z,11.62
2023-05-24T00:44:01.760Z,11.69
2023-05-24T00:46:31.185Z,11.69
2023-05-24T00:48:59.170Z,11.69
2023-05-24T00:51:30.429Z,11.71
2023-05-24T00:53:57.709Z,11.70
2023-05-24T00:56:25.266Z,11.69
2023-05-24T00:58:56.262Z,11.73
2023-05-24T01:01:26.827Z,11.75
2023-05-24T01:03:54.647Z,11.77
2023-05-24T01:06:22.109Z,11.73
2023-05-24T01:09:13.648Z,11.71
2023-05-24T01:11:51.546Z,11.71
2023-05-24T01:14:26.663Z,11.71
2023-05-24T01:17:13.567Z,11.75
2023-05-24T01:19:43.630Z,11.73
2023-05-24T01:22:44.124Z,11.78
2023-05-24T01:25:29.367Z,11.69
2023-05-24T01:27:58.556Z,11.69
2023-05-24T01:30:29.238Z,11.70
2023-05-24T01:32:56.673Z,11.65
2023-05-24T01:35:23.864Z,11.63
2023-05-24T01:37:52.865Z,11.64
2023-05-24T01:40:20.200Z,11.58
2023-05-24T01:43:23.436Z,11.75
2023-05-24T01:46:08.860Z,11.73
2023-05-24T01:48:47.557Z,11.70
2023-05-24T01:51:18.598Z,11.68
2023-05-24T01:53:49.313Z,11.71
2023-05-24T01:56:19.763Z,11.75
2023-05-24T01:58:48.336Z,11.80
2023-05-24T02:01:15.840Z,11.65
2023-05-24T02:03:43.050Z,11.65
2023-05-24T02:06:10.973Z,11.65
2023-05-24T02:08:38.215Z,11.65
2023-05-24T02:11:05.570Z,11.71
2023-05-24T02:13:32.675Z,11.78
2023-05-24T02:15:59.978Z,11.66
2023-05-24T02:18:27.220Z,11.62
2023-05-24T02:20:54.333Z,11.65
2023-05-24T02:23:21.675Z,11.60
2023-05-24T02:25:48.971Z,11.50
2023-05-24T02:28:16.204Z,11.55
2023-05-24T02:30:45.209Z,11.53
2023-05-24T02:33:12.756Z,11.63
2023-05-24T02:35:41.703Z,11.63
2023-05-24T02:38:09.967Z,11.56
2023-05-24T02:40:37.259Z,11.62
2023-05-24T02:43:04.523Z,11.67
2023-05-24T02:45:31.641Z,11.70
2023-05-24T02:47:58.881Z,11.71
2023-05-24T02:50:26.136Z,11.84
2023-05-24T02:52:53.389Z,11.77
2023-05-24T02:55:20.559Z,11.74
2023-05-24T02:57:48.634Z,11.69
2023-05-24T03:00:16.274Z,11.76
2023-05-24T03:02:43.494Z,11.70
2023-05-24T03:05:10.881Z,11.69
2023-05-24T03:07:38.004Z,11.66
2023-05-24T03:10:05.747Z,11.64
2023-05-24T03:12:33.148Z,11.67
2023-05-24T03:15:00.334Z,11.73
2023-05-24T03:17:27.580Z,11.74
2023-05-24T03:19:57.177Z,11.77
2023-05-24T03:22:24.281Z,11.80
2023-05-24T03:24:51.387Z,11.79
2023-05-24T03:27:18.506Z,11.73
2023-05-24T03:29:45.625Z,11.70
2023-05-24T03:32:12.722Z,11.75
2023-05-24T03:34:39.797Z,11.73
2023-05-24T03:37:06.836Z,11.76
2023-05-24T03:39:33.955Z,11.73
2023-05-24T03:42:01.389Z,11.75
2023-05-24T03:44:28.437Z,11.85
2023-05-24T03:46:55.541Z,11.72
2023-05-24T03:49:22.653Z,11.67
2023-05-24T03:51:49.923Z,11.64
2023-05-24T03:54:18.420Z,11.67
2023-05-24T03:56:45.899Z,11.73
2023-05-24T03:59:13.093Z,11.72
2023-05-24T04:01:40.272Z,11.67
2023-05-24T04:04:07.525Z,11.75
2023-05-24T04:06:36.978Z,11.74
2023-05-24T04:09:05.957Z,11.73
2023-05-24T04:11:33.242Z,11.77
2023-05-24T04:14:00.822Z,11.81
2023-05-24T04:16:28.215Z,11.75
2023-05-24T04:18:56.874Z,11.82
2023-05-24T04:21:24.197Z,11.82
2023-05-24T04:23:51.351Z,11.88
2023-05-24T04:26:19.119Z,11.83
2023-05-24T04:28:47.024Z,11.81
2023-05-24T04:31:15.789Z,11.82
2023-05-24T04:33:43.031Z,11.82
2023-05-24T04:36:11.830Z,11.85
2023-05-24T04:38:39.892Z,11.88
2023-05-24T04:41:07.491Z,11.90
2023-05-24T04:43:35.241Z,11.90
2023-05-24T04:46:02.463Z,11.94
2023-05-24T04:48:29.613Z,11.97
2023-05-24T04:51:01.573Z,12.00
2023-05-24T04:53:29.134Z,11.94
2023-05-24T04:55:56.350Z,11.91
2023-05-24T04:58:23.443Z,11.95
2023-05-24T05:00:50.899Z,11.90
2023-05-24T05:03:18.058Z,11.98
2023-05-24T05:05:46.646Z,11.98
2023-05-24T05:08:17.157Z,12.03
2023-05-24T05:10:44.901Z,11.94
2023-05-24T05:13:12.094Z,11.95
2023-05-24T05:15:40.494Z,12.02
2023-05-24T05:18:08.806Z,12.01
2023-05-24T05:20:35.985Z,11.92
2023-05-24T05:23:03.492Z,11.97
2023-05-24T05:25:31.303Z,11.96
2023-05-24T05:27:58.460Z,12.00
2023-05-24T05:30:25.601Z,11.93
2023-05-24T05:32:52.818Z,11.92
2023-05-24T05:35:20.285Z,11.92
2023-05-24T05:37:47.353Z,11.92
2023-05-24T05:40:14.525Z,11.94
2023-05-24T05:42:41.763Z,11.90
2023-05-24T05:45:09.570Z,11.86
2023-05-24T05:47:36.720Z,11.91
2023-05-24T05:50:04.139Z,11.97
2023-05-24T05:52:31.435Z,11.93
2023-05-24T05:54:59.455Z,11.96
2023-05-24T05:57:27.231Z,12.05
2023-05-24T05:59:54.374Z,12.01
2023-05-24T06:02:24.714Z,12.07
2023-05-24T06:04:51.923Z,12.07
2023-05-24T06:07:21.988Z,12.16
2023-05-24T06:09:49.429Z,12.07
2023-05-24T06:12:16.813Z,12.06
2023-05-24T06:14:44.472Z,12.14
2023-05-24T06:17:11.576Z,12.15
2023-05-24T06:19:39.448Z,12.20
2023-05-24T06:22:06.803Z,12.18
2023-05-24T06:24:35.217Z,12.14
2023-05-24T06:27:04.683Z,12.14
2023-05-24T06:29:32.672Z,12.17
2023-05-24T06:32:00.120Z,12.18
2023-05-24T06:34:27.658Z,12.19
2023-05-24T06:36:54.728Z,12.27
2023-05-24T06:39:21.843Z,12.27
2023-05-24T06:41:51.485Z,12.25
2023-05-24T06:44:18.973Z,12.28
2023-05-24T06:46:46.674Z,12.34
2023-05-24T06:49:13.922Z,12.32
2023-05-24T06:51:41.129Z,12.32
2023-05-24T06:54:08.592Z,12.43
2023-05-24T06:56:35.850Z,12.46
2023-05-24T06:59:02.971Z,12.48
2023-05-24T07:01:30.742Z,12.36
2023-05-24T07:03:58.095Z,12.46
2023-05-24T07:06:25.323Z,12.48
2023-05-24T07:08:52.389Z,12.51
2023-05-24T07:11:20.295Z,12.47
2023-05-24T07:13:47.434Z,12.48
2023-05-24T07:16:14.562Z,12.53
2023-05-24T07:18:42.042Z,12.55
2023-05-24T07:21:09.474Z,12.56
2023-05-24T07:23:37.615Z,12.61
2023-05-24T07:26:05.524Z,12.63
2023-05-24T07:28:33.093Z,12.61
2023-05-24T07:31:00.581Z,12.55
2023-05-24T07:33:27.833Z,12.53
2023-05-24T07:35:55.004Z,12.57
2023-05-24T07:38:22.618Z,12.58
2023-05-24T07:40:49.794Z,12.66
2023-05-24T07:43:17.038Z,12.85
2023-05-24T07:45:44.280Z,12.96
2023-05-24T07:48:11.756Z,12.87
2023-05-24T07:50:39.287Z,12.84
2023-05-24T07:53:07.686Z,12.84
2023-05-24T07:55:34.747Z,12.95
2023-05-24T07:58:01.817Z,12.99
2023-05-24T08:00:30.297Z,13.01
2023-05-24T08:02:57.630Z,13.00
2023-05-24T08:05:24.785Z,13.07
2023-05-24T08:07:52.804Z,13.05
2023-05-24T08:10:23.580Z,13.03
2023-05-24T08:12:54.959Z,12.94
2023-05-24T08:15:22.020Z,12.90
2023-05-24T08:17:49.738Z,12.88
2023-05-24T08:20:17.998Z,12.93
2023-05-24T08:22:45.393Z,13.01
2023-05-24T08:25:12.550Z,12.99
2023-05-24T08:27:40.324Z,13.01
2023-05-24T08:30:10.568Z,13.04
2023-05-24T08:32:38.554Z,12.98
2023-05-24T08:35:18.572Z,13.02
2023-05-24T08:37:48.293Z,13.12
2023-05-24T08:40:15.714Z,13.11
2023-05-24T08:42:42.935Z,13.07
2023-05-24T08:45:14.915Z,13.07
2023-05-24T08:47:42.785Z,13.06
2023-05-24T08:50:11.458Z,13.09
2023-05-24T08:52:39.961Z,13.11
2023-05-24T08:55:07.972Z,13.11
2023-05-24T08:57:40.137Z,13.15
2023-05-24T09:00:10.603Z,13.22
2023-05-24T09:02:39.800Z,13.27
2023-05-24T09:05:11.071Z,13.33
2023-05-24T09:07:39.068Z,13.28
2023-05-24T09:10:07.889Z,13.22
2023-05-24T09:12:38.582Z,13.27
2023-05-24T09:15:08.208Z,13.27
2023-05-24T09:17:37.116Z,13.29
2023-05-24T09:20:10.609Z,13.36
2023-05-24T09:22:41.185Z,13.40
2023-05-24T09:25:11.174Z,13.45
2023-05-24T09:27:38.643Z,13.38
2023-05-24T09:30:13.010Z,13.41
2023-05-24T09:32:41.577Z,13.30
2023-05-24T09:35:10.142Z,13.36
2023-05-24T09:37:39.179Z,13.46
2023-05-24T09:40:09.103Z,13.46
2023-05-24T09:42:36.222Z,13.55
2023-05-24T09:45:09.608Z,13.57
2023-05-24T09:47:38.844Z,13.58
2023-05-24T09:50:13.047Z,13.65
2023-05-24T09:52:41.221Z,13.71
2023-05-24T09:55:16.157Z,13.91
2023-05-24T09:57:45.273Z,14.14
2023-05-24T10:00:21.925Z,14.37
2023-05-24T10:03:04.877Z,14.56
2023-05-24T10:05:32.310Z,14.72
2023-05-24T10:08:01.172Z,14.92
2023-05-24T10:10:30.188Z,14.73
2023-05-24T10:12:58.509Z,14.82
2023-05-24T10:15:26.370Z,15.05
2023-05-24T10:17:57.473Z,15.15
2023-05-24T10:20:24.953Z,15.24
2023-05-24T10:22:59.623Z,15.03
2023-05-24T10:25:28.852Z,14.84
2023-05-24T10:27:59.073Z,14.77
2023-05-24T10:30:37.973Z,14.65
2023-05-24T10:33:08.236Z,14.52
2023-05-24T10:35:38.442Z,14.62
2023-05-24T10:38:07.918Z,14.67
2023-05-24T10:40:35.821Z,14.74
2023-05-24T10:43:08.666Z,14.69
2023-05-24T10:45:42.358Z,14.50
2023-05-24T10:48:10.237Z,14.35
2023-05-24T10:50:37.665Z,14.26
2023-05-24T10:53:15.118Z,14.32
2023-05-24T10:56:08.823Z,14.35
2023-05-24T10:59:00.497Z,14.36
2023-05-24T11:01:32.351Z,14.37
2023-05-24T11:04:17.117Z,14.60
2023-05-24T11:06:50.836Z,14.61
2023-05-24T11:09:20.319Z,14.54
2023-05-24T11:11:50.238Z,14.61
2023-05-24T11:14:32.969Z,14.70
2023-05-24T11:17:01.156Z,14.66
2023-05-24T11:19:37.522Z,14.73
2023-05-24T11:22:08.336Z,14.72
2023-05-24T11:24:36.490Z,14.75
2023-05-24T11:27:04.054Z,14.75
2023-05-24T11:29:31.210Z,14.68
2023-05-24T11:32:11.292Z,14.56
2023-05-24T11:34:47.551Z,14.52
2023-05-24T11:37:17.500Z,14.53
2023-05-24T11:39:52.627Z,14.56
2023-05-24T11:42:23.622Z,14.57
2023-05-24T11:44:52.311Z,14.62
2023-05-24T11:47:21.571Z,14.63
2023-05-24T11:49:52.836Z,14.47
2023-05-24T11:52:20.428Z,14.34
2023-05-24T11:54:47.770Z,14.30
2023-05-24T11:57:15.939Z,14.30
2023-05-24T11:59:46.835Z,14.35
2023-05-24T12:02:14.650Z,14.25
2023-05-24T12:04:41.879Z,14.23
2023-05-24T12:07:15.587Z,14.22
2023-05-24T12:09:42.719Z,14.01
2023-05-24T12:12:10.732Z,13.98
2023-05-24T12:14:43.628Z,14.06
2023-05-24T12:17:18.798Z,14.03
2023-05-24T12:19:50.271Z,14.09
2023-05-24T12:22:17.543Z,14.11
2023-05-24T12:24:44.731Z,14.24
2023-05-24T12:27:11.940Z,14.29
2023-05-24T12:29:41.956Z,14.41
2023-05-24T12:32:13.897Z,14.70
2023-05-24T12:34:43.079Z,14.77
2023-05-24T12:37:12.937Z,14.70
2023-05-24T12:39:44.437Z,14.72
2023-05-24T12:42:14.669Z,14.81
2023-05-24T12:44:45.649Z,14.70
2023-05-24T12:47:13.080Z,14.71
2023-05-24T12:49:40.427Z,14.83
2023-05-24T12:52:07.709Z,15.10
2023-05-24T12:54:37.623Z,15.20
2023-05-24T12:57:05.343Z,15.25
2023-05-24T12:59:33.574Z,15.09
2023-05-24T13:02:00.984Z,15.25
2023-05-24T13:04:28.285Z,15.21
2023-05-24T13:06:55.878Z,15.25
2023-05-24T13:09:23.874Z,15.22
2023-05-24T13:11:52.747Z,15.26
2023-05-24T13:14:20.432Z,15.33
2023-05-24T13:16:48.199Z,15.39
2023-05-24T13:19:15.541Z,15.41
2023-05-24T13:21:42.861Z,15.38
2023-05-24T13:24:10.263Z,15.27
2023-05-24T13:26:39.046Z,15.28
2023-05-24T13:31:41.335Z,15.07
2023-05-24T13:34:10.525Z,15.09
2023-05-24T13:36:38.373Z,15.31
2023-05-24T13:41:39.027Z,15.23
2023-05-24T13:44:07.442Z,15.21
2023-05-24T13:46:36.754Z,15.15
2023-05-24T13:49:04.778Z,15.23
2023-05-24T13:51:33.288Z,15.26
2023-05-24T13:54:01.384Z,15.43
2023-05-24T13:56:33.266Z,15.39
2023-05-24T13:59:04.871Z,15.31
2023-05-24T14:01:33.232Z,15.21
2023-05-24T14:04:01.854Z,15.14
2023-05-24T14:06:29.112Z,15.14
2023-05-24T14:08:56.323Z,14.93
2023-05-24T14:16:22.250Z,15.22
2023-05-24T14:18:51.899Z,15.44
2023-05-24T14:21:21.839Z,15.55
2023-05-24T14:23:49.698Z,15.69
2023-05-24T14:26:17.456Z,15.68
2023-05-24T14:28:44.599Z,15.53
2023-05-24T14:31:11.826Z,15.53
2023-05-24T14:33:39.050Z,15.57
2023-05-24T14:36:06.691Z,15.52
2023-05-24T14:38:33.834Z,15.56
2023-05-24T14:41:01.812Z,15.66
2023-05-24T14:43:29.474Z,15.74
2023-05-24T14:45:56.699Z,15.93
2023-05-24T14:48:23.891Z,16.05
2023-05-24T14:50:50.967Z,16.08
2023-05-24T14:53:18.121Z,16.25
2023-05-24T14:55:45.367Z,16.21
2023-05-24T14:58:12.894Z,16.21
2023-05-24T15:00:41.543Z,16.09
2023-05-24T15:03:09.350Z,16.07
2023-05-24T15:05:36.913Z,16.14
2023-05-24T15:08:05.760Z,16.06
2023-05-24T15:10:33.546Z,15.93
2023-05-24T15:13:01.696Z,15.74
2023-05-24T15:15:29.064Z,15.73
2023-05-24T15:17:57.787Z,15.78
2023-05-24T15:20:25.919Z,15.67
2023-05-24T15:22:53.364Z,15.72
2023-05-24T15:25:21.164Z,15.71
2023-05-24T15:27:58.166Z,15.62
2023-05-24T15:30:25.296Z,15.49
2023-05-24T15:32:52.392Z,15.52
2023-05-24T15:35:19.704Z,15.52
2023-05-24T15:37:46.787Z,15.63
2023-05-24T15:40:15.205Z,15.46
2023-05-24T15:42:42.392Z,15.38
2023-05-24T15:45:10.134Z,15.38
2023-05-24T15:47:40.085Z,15.35
2023-05-24T15:50:08.712Z,15.34
2023-05-24T15:52:36.665Z,15.47
2023-05-24T15:55:04.793Z,15.65
2023-05-24T15:57:32.365Z,15.57
2023-05-24T15:59:59.508Z,15.42
2023-05-24T16:02:27.219Z,15.36
2023-05-24T16:04:55.659Z,15.33
2023-05-24T16:07:26.244Z,15.34
2023-05-24T16:09:54.222Z,15.32
2023-05-24T16:12:26.130Z,15.32
2023-05-24T16:14:54.397Z,15.39
2023-05-24T16:17:21.607Z,15.44
2023-05-24T16:19:49.882Z,15.37
2023-05-24T16:22:17.447Z,15.44
2023-05-24T16:24:47.725Z,15.44
2023-05-24T16:27:15.121Z,15.51
2023-05-24T16:29:42.456Z,15.57
2023-05-24T16:32:09.809Z,15.42
2023-05-24T16:34:54.875Z,15.44
2023-05-24T16:37:23.052Z,15.47
2023-05-24T16:39:50.362Z,15.53
2023-05-24T16:42:17.634Z,15.57
2023-05-24T16:44:47.926Z,15.54
2023-05-24T16:47:15.528Z,15.48
2023-05-24T16:49:42.593Z,15.44
2023-05-24T16:52:09.715Z,15.44
2023-05-24T16:54:36.852Z,15.44
2023-05-24T16:57:04.033Z,15.56
2023-05-24T16:59:31.506Z,15.54
2023-05-24T17:01:58.765Z,15.45
2023-05-24T17:04:26.178Z,15.39
2023-05-24T17:06:53.579Z,15.28
2023-05-24T17:09:20.987Z,15.18
2023-05-24T17:11:49.359Z,14.99
2023-05-24T17:14:17.980Z,14.94
2023-05-24T17:16:45.730Z,14.90
2023-05-24T17:19:14.200Z,14.89
2023-05-24T17:21:41.483Z,14.80
2023-05-24T17:24:08.638Z,14.76
2023-05-24T17:26:35.921Z,14.69
2023-05-24T17:29:03.419Z,14.73
2023-05-24T17:31:30.679Z,14.68
2023-05-24T17:34:01.059Z,14.70
2023-05-24T17:36:28.367Z,14.65
2023-05-24T17:38:55.566Z,14.48
2023-05-24T17:41:26.315Z,14.52
2023-05-24T17:43:53.482Z,14.61
2023-05-24T17:46:20.831Z,14.61
2023-05-24T17:48:48.021Z,14.65
2023-05-24T17:51:17.732Z,14.63
2023-05-24T17:53:48.279Z,14.65
2023-05-24T17:56:15.655Z,14.63
2023-05-24T17:58:44.928Z,14.60
2023-05-24T18:01:14.036Z,14.57
2023-05-24T18:03:43.188Z,14.52
2023-05-24T18:06:13.040Z,14.47
2023-05-24T18:08:43.813Z,14.49
2023-05-24T18:11:13.623Z,14.47
2023-05-24T18:13:43.240Z,14.42
2023-05-24T18:16:11.901Z,14.39
2023-05-24T18:18:39.405Z,14.39
2023-05-24T18:21:09.771Z,14.35
2023-05-24T18:23:39.825Z,14.37
2023-05-24T18:26:08.569Z,14.35
2023-05-24T18:28:39.402Z,14.39
2023-05-24T18:31:08.825Z,14.39
2023-05-24T18:33:37.998Z,14.33
2023-05-24T18:36:05.968Z,14.31
2023-05-24T18:38:37.413Z,14.33
2023-05-24T18:41:06.506Z,14.35
2023-05-24T18:43:36.992Z,14.35
2023-05-24T18:46:04.574Z,14.34
2023-05-24T18:48:31.821Z,14.36
2023-05-24T18:50:58.972Z,14.26
2023-05-24T18:53:26.127Z,14.24
2023-05-24T18:55:53.702Z,14.25
2023-05-24T18:58:21.244Z,14.26
2023-05-24T19:00:48.448Z,14.33
2023-05-24T19:03:15.641Z,14.27
2023-05-24T19:05:44.133Z,14.24
2023-05-24T19:08:11.722Z,14.24
2023-05-24T19:10:38.970Z,14.24
2023-05-24T19:13:06.654Z,14.23
2023-05-24T19:15:35.650Z,14.29
2023-05-24T19:18:03.927Z,14.18
2023-05-24T19:20:31.232Z,14.17
2023-05-24T19:22:58.933Z,14.17
2023-05-24T19:25:26.045Z,14.07
2023-05-24T19:30:23.435Z,14.01
2023-05-24T19:32:51.101Z,14.03
2023-05-24T19:35:18.227Z,13.98
2023-05-24T19:37:45.481Z,14.02
2023-05-24T19:40:12.534Z,14.04
2023-05-24T19:42:39.602Z,13.95
2023-05-24T19:45:07.453Z,13.88
2023-05-24T19:47:34.708Z,13.79
2023-05-24T19:50:02.029Z,13.77
2023-05-24T19:52:29.239Z,13.79
2023-05-24T19:54:59.047Z,13.78
2023-05-24T19:57:26.595Z,13.77
2023-05-24T19:59:53.728Z,13.74
2023-05-24T20:02:21.150Z,13.73
2023-05-24T20:04:49.272Z,13.70
2023-05-24T20:07:16.502Z,13.73
2023-05-24T20:09:44.371Z,13.75
2023-05-24T20:12:12.194Z,13.70
2023-05-24T20:14:39.378Z,13.69
2023-05-24T20:17:06.572Z,13.68
2023-05-24T20:19:33.684Z,13.65
2023-05-24T20:22:00.836Z,13.64
2023-05-24T20:24:27.910Z,13.68
2023-05-24T20:26:54.983Z,13.62
2023-05-24T20:29:22.087Z,13.67
2023-05-24T20:31:49.558Z,13.64
2023-05-24T20:34:16.823Z,13.57
2023-05-24T20:36:46.382Z,13.56
2023-05-24T20:39:13.464Z,13.54
2023-05-24T20:41:40.607Z,13.51
2023-05-24T20:44:07.714Z,13.62
2023-05-24T20:46:35.001Z,13.64
2023-05-24T20:49:02.460Z,13.60
2023-05-24T20:51:29.616Z,13.54
2023-05-24T20:54:00.047Z,13.57
2023-05-24T20:56:27.663Z,13.55
2023-05-24T20:58:56.792Z,13.53
2023-05-24T21:01:24.270Z,13.49
2023-05-24T21:03:51.485Z,13.40
2023-05-24T21:06:21.017Z,13.40
2023-05-24T21:08:48.552Z,13.37
2023-05-24T21:11:15.726Z,13.40
2023-05-24T21:13:42.842Z,13.36
2023-05-24T21:16:10.379Z,13.39
2023-05-24T21:18:37.630Z,13.32
2023-05-24T21:21:06.238Z,13.25
2023-05-24T21:23:33.384Z,13.25
2023-05-24T21:26:03.233Z,13.31
2023-05-24T21:28:30.271Z,13.28
2023-05-24T21:30:57.736Z,13.30
2023-05-24T21:33:24.962Z,13.28
2023-05-24T21:35:52.052Z,13.27
2023-05-24T21:38:19.122Z,13.15
2023-05-24T21:40:46.465Z,13.25
2023-05-24T21:43:13.566Z,13.32
2023-05-24T21:45:41.188Z,13.22
2023-05-24T21:48:08.921Z,13.27
2023-05-24T21:50:36.090Z,13.26
2023-05-24T21:53:03.567Z,13.28
2023-05-24T21:55:30.801Z,13.14
2023-05-24T21:57:57.860Z,13.18
2023-05-24T22:00:27.111Z,13.30
2023-05-24T22:02:54.649Z,13.31
2023-05-24T22:05:21.818Z,13.32
2023-05-24T22:07:48.983Z,13.31
2023-05-24T22:10:16.142Z,13.36
2023-05-24T22:12:43.198Z,13.38
2023-05-24T22:15:11.011Z,13.39
2023-05-24T22:17:41.181Z,13.34
2023-05-24T22:20:09.502Z,13.33
2023-05-24T22:22:48.962Z,13.35
2023-05-24T22:25:19.661Z,13.19
2023-05-24T22:27:48.753Z,13.21
2023-05-24T22:30:17.359Z,13.26
2023-05-24T22:32:44.675Z,13.32
2023-05-24T22:35:11.894Z,13.29
2023-05-24T22:37:39.058Z,13.37
2023-05-24T22:40:06.739Z,13.35
2023-05-24T22:42:33.923Z,13.30
2023-05-24T22:45:01.135Z,13.20
2023-05-24T22:47:33.411Z,13.13
2023-05-24T22:50:02.280Z,13.05
2023-05-24T22:52:30.486Z,12.98
2023-05-24T22:54:57.612Z,12.94
2023-05-24T22:57:24.813Z,12.93
2023-05-24T22:59:52.036Z,12.94
2023-05-24T23:02:19.425Z,12.89
2023-05-24T23:04:46.665Z,12.83
2023-05-24T23:07:17.433Z,12.77
2023-05-24T23:09:44.657Z,12.68
2023-05-24T23:12:12.144Z,12.67
2023-05-24T23:14:41.865Z,12.59
2023-05-24T23:17:15.690Z,12.50
2023-05-24T23:19:46.674Z,12.50
2023-05-24T23:22:18.477Z,12.49
2023-05-24T23:24:47.702Z,12.47
2023-05-24T23:27:15.215Z,12.52
2023-05-24T23:29:42.369Z,12.46
2023-05-24T23:32:10.412Z,12.36
2023-05-24T23:34:37.722Z,12.36
2023-05-24T23:37:05.853Z,12.40
2023-05-24T23:39:32.969Z,12.52
2023-05-24T23:42:00.056Z,12.70
2023-05-24T23:44:27.104Z,12.66
2023-05-24T23:46:54.260Z,12.74
2023-05-24T23:49:21.574Z,12.74
2023-05-24T23:51:48.804Z,12.75
2023-05-24T23:54:16.123Z,12.75
2023-05-24T23:56:43.244Z,12.79
2023-05-24T23:59:10.617Z,12.76
